createdAt,value
2019-01-26T00:00:34.691Z,33.07
2019-01-26T00:05:38.116Z,27.20
2019-01-26T00:10:41.555Z,28.67
2019-01-26T00:15:45.032Z,28.80
2019-01-26T00:20:48.587Z,30.17
2019-01-26T00:25:52.076Z,25.67
2019-01-26T00:30:55.569Z,26.30
2019-01-26T00:35:59.209Z,31.07
2019-01-26T00:41:02.732Z,25.30
2019-01-26T00:46:06.129Z,30.73
2019-01-26T00:51:09.540Z,29.93
2019-01-26T00:56:13.004Z,31.07
2019-01-26T01:01:16.436Z,29.40
2019-01-26T01:06:19.865Z,31.10
2019-01-26T01:11:23.289Z,31.27
2019-01-26T01:16:26.707Z,35.87
2019-01-26T01:21:30.125Z,32.03
2019-01-26T01:26:33.588Z,34.17
2019-01-26T01:31:37.080Z,38.20
2019-01-26T01:36:40.500Z,39.60
2019-01-26T01:41:43.998Z,37.83
2019-01-26T01:46:47.482Z,44.43
2019-01-26T01:51:50.902Z,46.30
2019-01-26T01:56:54.359Z,49.30
2019-01-26T02:01:57.778Z,48.47
2019-01-26T02:07:01.258Z,46.97
2019-01-26T02:12:04.739Z,52.60
2019-01-26T02:17:08.220Z,58.97
2019-01-26T02:22:11.727Z,47.80
2019-01-26T02:27:15.167Z,54.40
2019-01-26T02:32:18.585Z,55.87
2019-01-26T02:37:22.063Z,57.80
2019-01-26T02:42:25.490Z,62.60
2019-01-26T02:47:28.919Z,61.43
2019-01-26T02:52:32.356Z,66.03
2019-01-26T02:57:35.780Z,71.53
2019-01-26T03:02:39.193Z,55.97
2019-01-26T03:07:42.775Z,63.30
2019-01-26T03:12:46.484Z,74.20
2019-01-26T03:17:49.997Z,69.03
2019-01-26T03:22:53.416Z,73.23
2019-01-26T03:27:56.854Z,99.30
2019-01-26T03:33:00.277Z,88.23
2019-01-26T03:38:03.722Z,92.77
2019-01-26T03:43:07.320Z,80.80
2019-01-26T03:48:10.807Z,96.80
2019-01-26T03:53:14.193Z,96.00
2019-01-26T03:58:17.625Z,101.40
2019-01-26T04:03:21.359Z,91.10
2019-01-26T04:08:24.782Z,91.40
2019-01-26T04:13:28.248Z,78.83
2019-01-26T04:18:31.658Z,80.73
2019-01-26T04:23:35.075Z,84.57
2019-01-26T04:28:38.511Z,76.00
2019-01-26T04:33:42.024Z,79.83
2019-01-26T04:38:45.438Z,80.03
2019-01-26T04:43:48.868Z,78.07
2019-01-26T04:48:52.339Z,73.50
2019-01-26T04:53:55.830Z,88.53
2019-01-26T04:58:59.247Z,88.13
2019-01-26T05:04:02.796Z,83.60
2019-01-26T05:09:07.942Z,77.30
2019-01-26T05:14:11.362Z,75.77
2019-01-26T05:19:14.778Z,76.70
2019-01-26T05:24:18.192Z,82.43
2019-01-26T05:29:21.622Z,72.63
2019-01-26T05:34:25.045Z,69.60
2019-01-26T05:39:28.489Z,87.90
2019-01-26T05:44:31.984Z,81.53
2019-01-26T05:49:35.469Z,84.30
2019-01-26T05:54:38.902Z,87.73
2019-01-26T05:59:42.403Z,89.33
2019-01-26T06:04:47.552Z,96.63
2019-01-26T06:09:50.981Z,92.23
2019-01-26T06:14:54.418Z,103.73
2019-01-26T06:19:57.951Z,88.43
2019-01-26T06:25:01.487Z,90.47
2019-01-26T06:30:13.935Z,97.20
2019-01-26T06:35:17.536Z,89.20
2019-01-26T06:40:21.592Z,88.70
2019-01-26T06:45:25.183Z,92.87
2019-01-26T06:50:29.211Z,94.23
2019-01-26T06:55:32.640Z,99.97
2019-01-26T07:00:36.134Z,92.77
2019-01-26T07:05:44.309Z,95.30
2019-01-26T07:10:47.819Z,86.83
2019-01-26T07:15:52.070Z,94.70
2019-01-26T07:20:55.558Z,83.47
2019-01-26T07:25:59.108Z,94.20
2019-01-26T07:31:02.565Z,88.83
2019-01-26T07:36:06.010Z,91.17
2019-01-26T07:41:09.479Z,84.73
2019-01-26T07:46:13.019Z,75.70
2019-01-26T07:51:16.458Z,81.53
2019-01-26T07:56:19.909Z,85.40
2019-01-26T08:01:23.370Z,77.20
2019-01-26T08:06:26.768Z,73.33
2019-01-26T08:11:30.262Z,78.10
2019-01-26T08:16:33.768Z,67.63
2019-01-26T08:21:37.444Z,65.30
2019-01-26T08:26:40.890Z,68.43
2019-01-26T08:31:44.314Z,59.07
2019-01-26T08:36:47.759Z,58.67
2019-01-26T08:41:51.221Z,52.93
2019-01-26T08:46:54.676Z,51.97
2019-01-26T08:51:58.088Z,52.93
2019-01-26T08:57:01.504Z,51.63
2019-01-26T09:02:12.782Z,55.37
2019-01-26T09:07:16.206Z,59.17
2019-01-26T09:12:19.651Z,53.37
2019-01-26T09:17:23.091Z,45.97
2019-01-26T09:22:26.529Z,42.23
2019-01-26T09:27:29.959Z,48.00
2019-01-26T09:32:33.382Z,48.23
2019-01-26T09:37:36.883Z,40.03
2019-01-26T09:42:40.310Z,41.90
2019-01-26T09:47:43.812Z,43.30
2019-01-26T09:52:47.260Z,36.40
2019-01-26T09:57:50.770Z,43.80
2019-01-26T10:02:54.332Z,39.67
2019-01-26T10:07:57.837Z,40.57
2019-01-26T10:13:01.277Z,36.33
2019-01-26T10:18:04.966Z,44.20
2019-01-26T10:23:08.450Z,41.47
2019-01-26T10:28:11.881Z,40.97
2019-01-26T10:33:15.438Z,41.93
2019-01-26T10:38:19.048Z,48.43
2019-01-26T10:43:36.166Z,36.87
2019-01-26T10:48:39.596Z,37.87
2019-01-26T10:53:43.010Z,37.53
2019-01-26T10:58:46.450Z,41.43
2019-01-26T11:03:49.901Z,35.23
2019-01-26T11:08:53.426Z,34.10
2019-01-26T11:13:56.863Z,52.03
2019-01-26T11:19:00.355Z,37.67
2019-01-26T11:24:04.330Z,28.50
2019-01-26T11:29:07.783Z,27.40
2019-01-26T11:34:11.328Z,24.40
2019-01-26T11:39:14.764Z,26.50
2019-01-26T11:44:18.207Z,34.67
2019-01-26T11:49:21.959Z,37.10
2019-01-26T11:54:25.435Z,30.23
2019-01-26T11:59:28.935Z,38.87
2019-01-26T12:04:34.029Z,39.57
2019-01-26T12:09:37.451Z,42.13
2019-01-26T12:14:40.872Z,44.63
2019-01-26T12:19:44.294Z,43.73
2019-01-26T12:24:47.745Z,44.20
2019-01-26T12:29:51.176Z,43.90
2019-01-26T12:34:54.596Z,51.30
2019-01-26T12:39:58.053Z,51.10
2019-01-26T12:45:01.485Z,52.63
2019-01-26T12:50:07.977Z,46.67
2019-01-26T12:55:16.426Z,59.43
2019-01-26T13:00:22.932Z,54.37
2019-01-26T13:05:26.331Z,48.30
2019-01-26T13:10:36.214Z,46.27
2019-01-26T13:15:39.692Z,53.17
2019-01-26T13:20:43.106Z,48.33
2019-01-26T13:25:46.613Z,51.87
2019-01-26T13:30:50.104Z,56.23
2019-01-26T13:35:53.666Z,43.63
2019-01-26T13:40:57.078Z,42.97
2019-01-26T13:46:00.718Z,42.53
2019-01-26T13:51:04.280Z,55.10
2019-01-26T13:56:07.759Z,45.43
2019-01-26T14:01:11.177Z,44.93
2019-01-26T14:06:14.614Z,44.27
2019-01-26T14:11:18.039Z,37.50
2019-01-26T14:16:21.473Z,40.00
2019-01-26T14:21:25.089Z,35.93
2019-01-26T14:26:28.565Z,38.73
2019-01-26T14:31:31.989Z,33.83
2019-01-26T14:36:35.417Z,41.10
2019-01-26T14:41:38.840Z,48.90
2019-01-26T14:46:42.272Z,45.50
2019-01-26T14:51:45.706Z,41.97
2019-01-26T14:56:49.136Z,46.07
2019-01-26T15:01:52.567Z,55.40
2019-01-26T15:06:55.995Z,52.87
2019-01-26T15:11:59.413Z,53.70
2019-01-26T15:17:02.989Z,48.43
2019-01-26T15:22:06.575Z,46.63
2019-01-26T15:27:10.117Z,46.87
2019-01-26T15:32:13.720Z,40.63
2019-01-26T15:37:17.222Z,43.60
2019-01-26T15:42:20.718Z,38.73
2019-01-26T15:47:24.158Z,43.47
2019-01-26T15:52:27.577Z,36.50
2019-01-26T15:57:31.067Z,40.47
2019-01-26T16:02:34.675Z,33.70
2019-01-26T16:07:38.122Z,37.13
2019-01-26T16:12:41.545Z,32.50
2019-01-26T16:17:45.001Z,32.33
2019-01-26T16:22:48.640Z,26.27
2019-01-26T16:27:52.136Z,33.50
2019-01-26T16:32:55.575Z,24.07
2019-01-26T16:37:59.021Z,23.53
2019-01-26T16:43:24.194Z,23.40
2019-01-26T16:48:27.620Z,20.93
2019-01-26T16:53:31.137Z,20.47
2019-01-26T16:58:35.437Z,21.60
2019-01-26T17:03:38.916Z,24.17
2019-01-26T17:08:42.347Z,25.87
2019-01-26T17:13:45.785Z,27.80
2019-01-26T17:18:49.200Z,25.20
2019-01-26T17:23:52.631Z,20.33
2019-01-26T17:28:56.072Z,24.23
2019-01-26T17:33:59.559Z,24.37
2019-01-26T17:39:05.894Z,25.93
2019-01-26T17:44:09.316Z,25.77
2019-01-26T17:49:12.750Z,22.50
2019-01-26T17:54:16.205Z,29.50
2019-01-26T17:59:19.649Z,24.40
2019-01-26T18:04:23.191Z,25.47
2019-01-26T18:09:26.768Z,22.37
2019-01-26T18:14:30.326Z,28.17
2019-01-26T18:19:33.814Z,33.33
2019-01-26T18:24:37.255Z,30.67
2019-01-26T18:29:40.687Z,27.57
2019-01-26T18:34:44.216Z,35.90
2019-01-26T18:39:47.771Z,28.70
2019-01-26T18:44:51.122Z,27.50
2019-01-26T18:49:54.561Z,27.13
2019-01-26T18:54:57.992Z,25.13
2019-01-26T19:00:01.535Z,31.10
2019-01-26T19:05:08.128Z,26.03
2019-01-26T19:10:13.193Z,33.47
2019-01-26T19:15:22.539Z,29.17
2019-01-26T19:20:26.048Z,26.33
2019-01-26T19:25:29.552Z,22.00
2019-01-26T19:30:33.121Z,23.90
2019-01-26T19:35:36.638Z,18.70
2019-01-26T19:40:40.099Z,18.47
2019-01-26T19:45:43.538Z,15.83
2019-01-26T19:50:46.970Z,15.97
2019-01-26T19:55:50.415Z,12.97
2019-01-26T20:00:53.854Z,11.60
2019-01-26T20:05:57.265Z,14.07
2019-01-26T20:11:00.693Z,13.53
2019-01-26T20:16:04.192Z,11.37
2019-01-26T20:21:07.762Z,12.33
2019-01-26T20:26:11.259Z,15.00
2019-01-26T20:31:14.921Z,11.00
2019-01-26T20:36:18.354Z,19.17
2019-01-26T20:41:21.786Z,11.67
2019-01-26T20:46:25.337Z,11.03
2019-01-26T20:51:28.795Z,11.80
2019-01-26T20:56:32.212Z,10.50
2019-01-26T21:01:35.718Z,13.60
2019-01-26T21:06:39.149Z,11.03
2019-01-26T21:11:42.612Z,10.80
2019-01-26T21:16:46.037Z,12.13
2019-01-26T21:21:49.466Z,15.10
2019-01-26T21:26:52.966Z,12.40
2019-01-26T21:31:56.396Z,13.57
2019-01-26T21:36:59.820Z,39.73
2019-01-26T21:42:03.244Z,15.40
2019-01-26T21:47:06.961Z,10.67
2019-01-26T21:52:10.448Z,11.47
2019-01-26T21:57:13.855Z,11.03
2019-01-26T22:02:17.269Z,10.03
2019-01-26T22:07:20.697Z,9.40
2019-01-26T22:12:25.166Z,9.30
2019-01-26T22:17:28.791Z,13.77
2019-01-26T22:22:32.281Z,10.57
2019-01-26T22:27:35.781Z,7.97
2019-01-26T22:32:39.213Z,7.40
2019-01-26T22:37:42.680Z,7.30
2019-01-26T22:42:46.108Z,5.93
2019-01-26T22:47:49.580Z,5.80
2019-01-26T22:52:53.234Z,5.80
2019-01-26T22:57:56.739Z,4.37
2019-01-26T23:03:00.255Z,5.83
2019-01-26T23:08:04.528Z,4.57
2019-01-26T23:13:13.777Z,4.03
2019-01-26T23:18:25.958Z,3.73
2019-01-26T23:23:38.407Z,3.67
2019-01-26T23:28:50.665Z,4.07
2019-01-26T23:33:54.240Z,3.10
2019-01-26T23:39:02.289Z,3.30
2019-01-26T23:44:03.086Z,3.80
2019-01-26T23:49:06.522Z,3.93
2019-01-26T23:54:09.952Z,3.33
2019-01-26T23:59:13.430Z,3.07
